createdAt,value
2016-10-08T00:00:34.101Z,171
2016-10-08T00:01:34.441Z,171
2016-10-08T00:02:34.957Z,171
2016-10-08T00:03:35.443Z,171
2016-10-08T00:04:36.104Z,171
2016-10-08T00:05:36.592Z,171
2016-10-08T00:06:36.956Z,171
2016-10-08T00:07:37.479Z,171
2016-10-08T00:08:37.956Z,171
2016-10-08T00:09:38.446Z,216
2016-10-08T00:10:38.970Z,216
2016-10-08T00:11:39.590Z,216
2016-10-08T00:12:40.095Z,216
2016-10-08T00:13:40.448Z,216
2016-10-08T00:14:41.114Z,216
2016-10-08T00:15:41.454Z,216
2016-10-08T00:16:42.097Z,216
2016-10-08T00:17:42.600Z,216
2016-10-08T00:18:43.118Z,216
2016-10-08T00:19:43.463Z,171
2016-10-08T00:20:44.110Z,171
2016-10-08T00:21:44.474Z,171
2016-10-08T00:22:44.966Z,171
2016-10-08T00:23:45.475Z,171
2016-10-08T00:24:45.977Z,171
2016-10-08T00:25:46.452Z,171
2016-10-08T00:26:47.100Z,171
2016-10-08T00:27:47.593Z,171
2016-10-08T00:28:47.949Z,171
2016-10-08T00:29:48.590Z,189
2016-10-08T00:30:48.957Z,189
2016-10-08T00:31:49.447Z,189
2016-10-08T00:32:49.942Z,189
2016-10-08T00:33:50.470Z,189
2016-10-08T00:34:50.976Z,189
2016-10-08T00:35:51.462Z,189
2016-10-08T00:36:51.965Z,189
2016-10-08T00:37:52.605Z,189
2016-10-08T00:38:53.111Z,189
2016-10-08T00:39:53.614Z,164
2016-10-08T00:40:53.988Z,164
2016-10-08T00:41:54.637Z,164
2016-10-08T00:42:54.975Z,164
2016-10-08T00:43:55.484Z,164
2016-10-08T00:44:55.969Z,164
2016-10-08T00:45:56.486Z,164
2016-10-08T00:46:56.972Z,164
2016-10-08T00:47:57.616Z,164
2016-10-08T00:48:58.126Z,164
2016-10-08T00:49:58.502Z,139
2016-10-08T00:50:58.981Z,139
2016-10-08T00:51:59.641Z,139
2016-10-08T00:53:00.025Z,139
2016-10-08T00:54:00.484Z,139
2016-10-08T00:55:00.968Z,139
2016-10-08T00:56:01.467Z,139
2016-10-08T00:57:01.970Z,139
2016-10-08T00:58:02.615Z,139
2016-10-08T00:59:02.981Z,139
2016-10-08T01:00:03.493Z,178
2016-10-08T01:01:04.130Z,178
2016-10-08T01:02:04.614Z,178
2016-10-08T01:03:04.967Z,178
2016-10-08T01:04:05.470Z,178
2016-10-08T01:05:05.992Z,178
2016-10-08T01:06:06.623Z,178
2016-10-08T01:07:06.978Z,178
2016-10-08T01:08:07.525Z,178
2016-10-08T01:09:07.993Z,160
2016-10-08T01:10:08.466Z,160
2016-10-08T01:11:09.116Z,160
2016-10-08T01:12:09.764Z,160
2016-10-08T01:13:10.116Z,160
2016-10-08T01:14:10.462Z,160
2016-10-08T01:15:10.967Z,160
2016-10-08T01:16:11.473Z,160
2016-10-08T01:17:11.999Z,160
2016-10-08T01:18:12.503Z,160
2016-10-08T01:19:12.976Z,90
2016-10-08T01:20:13.475Z,90
2016-10-08T01:21:13.985Z,90
2016-10-08T01:22:14.495Z,90
2016-10-08T01:23:14.986Z,90
2016-10-08T01:24:15.625Z,90
2016-10-08T01:25:15.983Z,90
2016-10-08T01:26:16.480Z,90
2016-10-08T01:27:16.975Z,90
2016-10-08T01:28:17.480Z,90
2016-10-08T01:29:18.130Z,130
2016-10-08T01:30:18.507Z,130
2016-10-08T01:31:18.984Z,130
2016-10-08T01:32:19.504Z,130
2016-10-08T01:33:20.145Z,130
2016-10-08T01:34:20.627Z,130
2016-10-08T01:35:20.996Z,130
2016-10-08T01:36:21.627Z,130
2016-10-08T01:37:22.131Z,130
2016-10-08T01:38:22.506Z,130
2016-10-08T01:39:22.977Z,104
2016-10-08T01:40:23.483Z,104
2016-10-08T01:41:23.977Z,104
2016-10-08T01:42:24.639Z,104
2016-10-08T01:43:25.005Z,104
2016-10-08T01:44:25.631Z,104
2016-10-08T01:45:26.137Z,104
2016-10-08T01:46:26.628Z,104
2016-10-08T01:47:26.987Z,104
2016-10-08T01:48:27.506Z,104
2016-10-08T01:49:27.992Z,84
2016-10-08T01:50:28.547Z,84
2016-10-08T01:51:29.138Z,84
2016-10-08T01:52:29.678Z,84
2016-10-08T01:53:30.139Z,84
2016-10-08T01:54:30.640Z,84
2016-10-08T01:55:31.145Z,84
2016-10-08T01:56:31.524Z,84
2016-10-08T01:57:32.026Z,84
2016-10-08T01:58:32.512Z,84
2016-10-08T01:59:33.012Z,141
2016-10-08T02:00:33.522Z,141
2016-10-08T02:01:34.165Z,141
2016-10-08T02:02:34.534Z,141
2016-10-08T02:03:35.012Z,141
2016-10-08T02:04:35.521Z,141
2016-10-08T02:05:35.998Z,141
2016-10-08T02:06:36.667Z,141
2016-10-08T02:07:37.000Z,141
2016-10-08T02:08:37.661Z,141
2016-10-08T02:09:38.009Z,94
2016-10-08T02:10:38.555Z,94
2016-10-08T02:11:39.014Z,94
2016-10-08T02:12:39.513Z,94
2016-10-08T02:13:40.149Z,94
2016-10-08T02:14:40.661Z,94
2016-10-08T02:15:41.011Z,94
2016-10-08T02:16:41.650Z,94
2016-10-08T02:17:42.033Z,94
2016-10-08T02:18:42.652Z,94
2016-10-08T02:19:43.027Z,77
2016-10-08T02:20:43.510Z,77
2016-10-08T02:21:44.010Z,77
2016-10-08T02:22:44.650Z,77
2016-10-08T02:23:45.004Z,77
2016-10-08T02:24:45.651Z,77
2016-10-08T02:25:46.003Z,77
2016-10-08T02:26:46.527Z,77
2016-10-08T02:27:47.159Z,77
2016-10-08T02:28:47.650Z,77
2016-10-08T02:29:48.024Z,61
2016-10-08T02:30:48.513Z,61
2016-10-08T02:31:49.152Z,61
2016-10-08T02:32:49.520Z,61
2016-10-08T02:33:50.048Z,61
2016-10-08T02:34:50.533Z,61
2016-10-08T02:35:51.043Z,61
2016-10-08T02:36:51.520Z,61
2016-10-08T02:37:52.054Z,61
2016-10-08T02:38:52.684Z,61
2016-10-08T02:39:53.016Z,110
2016-10-08T02:40:53.661Z,110
2016-10-08T02:41:54.053Z,110
2016-10-08T02:42:54.516Z,110
2016-10-08T02:43:55.045Z,110
2016-10-08T02:44:55.688Z,110
2016-10-08T02:45:56.018Z,110
2016-10-08T02:46:56.680Z,110
2016-10-08T02:47:57.017Z,110
2016-10-08T02:48:57.572Z,110
2016-10-08T02:49:58.028Z,127
2016-10-08T02:50:58.516Z,127
2016-10-08T02:51:59.037Z,127
2016-10-08T02:52:59.518Z,127
2016-10-08T02:54:00.040Z,127
2016-10-08T02:55:00.514Z,127
2016-10-08T02:56:01.039Z,127
2016-10-08T02:57:01.506Z,127
2016-10-08T02:58:02.033Z,127
2016-10-08T02:59:02.653Z,127
2016-10-08T03:00:03.021Z,128
2016-10-08T03:01:03.510Z,128
2016-10-08T03:02:04.022Z,128
2016-10-08T03:03:04.655Z,128
2016-10-08T03:04:05.012Z,128
2016-10-08T03:05:05.510Z,128
2016-10-08T03:06:06.009Z,128
2016-10-08T03:07:06.652Z,128
2016-10-08T03:08:07.018Z,128
2016-10-08T03:09:07.543Z,128
2016-10-08T03:10:08.159Z,124
2016-10-08T03:11:08.523Z,124
2016-10-08T03:12:09.025Z,124
2016-10-08T03:13:09.677Z,124
2016-10-08T03:14:10.067Z,124
2016-10-08T03:15:10.541Z,124
2016-10-08T03:16:11.201Z,124
2016-10-08T03:17:11.528Z,124
2016-10-08T03:18:12.024Z,124
2016-10-08T03:19:12.518Z,146
2016-10-08T03:20:13.186Z,146
2016-10-08T03:21:13.516Z,146
2016-10-08T03:22:14.030Z,146
2016-10-08T03:23:14.527Z,146
2016-10-08T03:24:15.163Z,146
2016-10-08T03:25:15.510Z,146
2016-10-08T03:26:16.006Z,146
2016-10-08T03:27:16.521Z,146
2016-10-08T03:28:17.018Z,146
2016-10-08T03:29:17.665Z,161
2016-10-08T03:30:18.164Z,161
2016-10-08T03:31:18.526Z,161
2016-10-08T03:32:19.068Z,161
2016-10-08T03:33:19.564Z,161
2016-10-08T03:34:20.009Z,161
2016-10-08T03:35:20.677Z,161
2016-10-08T03:36:21.160Z,161
2016-10-08T03:37:21.517Z,161
2016-10-08T03:38:22.014Z,161
2016-10-08T03:39:22.656Z,114
2016-10-08T03:40:23.162Z,114
2016-10-08T03:41:23.534Z,114
2016-10-08T03:42:24.057Z,114
2016-10-08T03:43:24.535Z,114
2016-10-08T03:44:25.172Z,114
2016-10-08T03:45:25.526Z,114
2016-10-08T03:46:26.180Z,114
2016-10-08T03:47:26.561Z,114
2016-10-08T03:48:27.163Z,114
2016-10-08T03:49:27.664Z,66
2016-10-08T03:50:28.169Z,66
2016-10-08T03:51:28.533Z,66
2016-10-08T03:52:29.178Z,66
2016-10-08T03:53:29.669Z,66
2016-10-08T03:54:30.175Z,66
2016-10-08T03:55:30.675Z,66
2016-10-08T03:56:31.035Z,66
2016-10-08T03:57:31.828Z,66
2016-10-08T03:58:32.049Z,66
2016-10-08T03:59:32.550Z,86
2016-10-08T04:00:33.041Z,86
2016-10-08T04:01:33.532Z,86
2016-10-08T04:02:34.044Z,86
2016-10-08T04:03:34.672Z,86
2016-10-08T04:04:35.056Z,86
2016-10-08T04:05:35.529Z,86
2016-10-08T04:06:36.180Z,86
2016-10-08T04:07:36.673Z,86
2016-10-08T04:08:37.053Z,86
2016-10-08T04:09:37.532Z,62
2016-10-08T04:10:38.046Z,62
2016-10-08T04:11:38.707Z,62
2016-10-08T04:12:39.058Z,62
2016-10-08T04:13:39.528Z,62
2016-10-08T04:14:40.051Z,62
2016-10-08T04:15:40.676Z,62
2016-10-08T04:16:41.056Z,62
2016-10-08T04:17:41.675Z,62
2016-10-08T04:18:42.033Z,62
2016-10-08T04:19:42.677Z,92
2016-10-08T04:20:43.028Z,92
2016-10-08T04:21:43.682Z,92
2016-10-08T04:22:44.182Z,92
2016-10-08T04:23:44.529Z,92
2016-10-08T04:24:45.039Z,92
2016-10-08T04:25:45.529Z,92
2016-10-08T04:26:46.032Z,92
2016-10-08T04:27:46.688Z,92
2016-10-08T04:28:47.195Z,92
2016-10-08T04:29:47.686Z,103
2016-10-08T04:30:48.043Z,103
2016-10-08T04:31:48.541Z,103
2016-10-08T04:32:49.075Z,103
2016-10-08T04:33:49.539Z,103
2016-10-08T04:34:50.045Z,103
2016-10-08T04:35:50.542Z,103
2016-10-08T04:36:51.053Z,103
2016-10-08T04:37:51.558Z,103
2016-10-08T04:38:52.088Z,103
2016-10-08T04:39:52.559Z,122
2016-10-08T04:40:53.192Z,122
2016-10-08T04:41:53.536Z,122
2016-10-08T04:42:54.039Z,122
2016-10-08T04:43:54.562Z,122
2016-10-08T04:44:55.045Z,122
2016-10-08T04:45:55.541Z,122
2016-10-08T04:46:56.079Z,122
2016-10-08T04:47:56.683Z,122
2016-10-08T04:48:57.040Z,122
2016-10-08T04:49:57.691Z,149
2016-10-08T04:50:58.076Z,149
2016-10-08T04:51:58.602Z,149
2016-10-08T04:52:59.094Z,149
2016-10-08T04:53:59.641Z,149
2016-10-08T04:55:00.279Z,149
2016-10-08T04:56:00.792Z,149
2016-10-08T04:57:01.177Z,149
2016-10-08T04:58:01.679Z,149
2016-10-08T04:59:02.341Z,149
2016-10-08T05:00:02.708Z,136
2016-10-08T05:01:03.252Z,136
2016-10-08T05:02:03.853Z,136
2016-10-08T05:03:04.273Z,136
2016-10-08T05:04:04.863Z,136
2016-10-08T05:05:05.238Z,136
2016-10-08T05:06:05.891Z,136
2016-10-08T05:07:06.231Z,136
2016-10-08T05:08:06.732Z,136
2016-10-08T05:09:07.249Z,136
2016-10-08T05:11:08.248Z,145
2016-10-08T05:12:08.752Z,145
2016-10-08T05:13:09.236Z,145
2016-10-08T05:14:09.880Z,145
2016-10-08T05:15:10.408Z,145
2016-10-08T05:16:10.758Z,145
2016-10-08T05:17:11.251Z,145
2016-10-08T05:18:11.762Z,145
2016-10-08T05:19:12.256Z,107
2016-10-08T05:20:12.894Z,107
2016-10-08T05:21:13.277Z,107
2016-10-08T05:22:13.895Z,107
2016-10-08T05:23:14.285Z,107
2016-10-08T05:24:14.766Z,107
2016-10-08T05:25:15.252Z,107
2016-10-08T05:26:15.751Z,107
2016-10-08T05:27:16.265Z,107
2016-10-08T05:28:16.769Z,107
2016-10-08T05:29:17.259Z,100
2016-10-08T05:30:17.760Z,100
2016-10-08T05:31:18.267Z,100
2016-10-08T05:32:18.755Z,100
2016-10-08T05:33:19.419Z,100
2016-10-08T05:34:19.906Z,100
2016-10-08T05:35:20.256Z,100
2016-10-08T05:36:20.771Z,100
2016-10-08T05:37:21.262Z,100
2016-10-08T05:38:21.928Z,100
2016-10-08T05:39:22.431Z,193
2016-10-08T05:40:22.784Z,193
2016-10-08T05:41:23.274Z,193
2016-10-08T05:42:23.792Z,193
2016-10-08T05:43:24.428Z,193
2016-10-08T05:44:24.933Z,193
2016-10-08T05:45:25.443Z,193
2016-10-08T05:46:25.804Z,193
2016-10-08T05:47:26.293Z,193
2016-10-08T05:48:26.942Z,193
2016-10-08T05:49:27.442Z,140
2016-10-08T05:50:27.806Z,140
2016-10-08T05:51:28.310Z,140
2016-10-08T05:52:28.806Z,140
2016-10-08T05:53:29.318Z,140
2016-10-08T05:54:29.803Z,140
2016-10-08T05:55:30.447Z,140
2016-10-08T05:56:30.828Z,140
2016-10-08T05:57:31.328Z,140
2016-10-08T05:58:31.825Z,140
2016-10-08T05:59:32.317Z,122
2016-10-08T06:00:32.960Z,122
2016-10-08T06:01:33.457Z,122
2016-10-08T06:02:33.813Z,122
2016-10-08T06:03:34.316Z,122
2016-10-08T06:04:34.861Z,122
2016-10-08T06:05:35.309Z,122
2016-10-08T06:06:35.816Z,122
2016-10-08T06:07:36.324Z,122
2016-10-08T06:08:36.829Z,122
2016-10-08T06:09:37.467Z,68
2016-10-08T06:10:37.817Z,68
2016-10-08T06:11:38.317Z,68
2016-10-08T06:12:38.868Z,68
2016-10-08T06:13:39.322Z,68
2016-10-08T06:14:39.970Z,68
2016-10-08T06:15:40.373Z,68
2016-10-08T06:16:40.978Z,68
2016-10-08T06:17:41.336Z,68
2016-10-08T06:18:41.843Z,68
2016-10-08T06:19:42.350Z,161
2016-10-08T06:20:42.994Z,161
2016-10-08T06:21:43.501Z,161
2016-10-08T06:22:43.879Z,161
2016-10-08T06:23:44.511Z,161
2016-10-08T06:24:45.026Z,161
2016-10-08T06:25:45.358Z,161
2016-10-08T06:26:45.864Z,161
2016-10-08T06:27:46.509Z,161
2016-10-08T06:28:46.868Z,161
2016-10-08T06:29:47.372Z,103
2016-10-08T06:30:47.904Z,103
2016-10-08T06:31:48.393Z,103
2016-10-08T06:32:48.889Z,103
2016-10-08T06:33:49.543Z,103
2016-10-08T06:34:49.877Z,103
2016-10-08T06:35:50.375Z,103
2016-10-08T06:36:50.881Z,103
2016-10-08T06:37:51.383Z,103
2016-10-08T06:38:51.904Z,103
2016-10-08T06:39:52.399Z,166
2016-10-08T06:40:52.878Z,166
2016-10-08T06:41:53.380Z,166
2016-10-08T06:42:53.887Z,166
2016-10-08T06:43:54.533Z,166
2016-10-08T06:44:55.030Z,166
2016-10-08T06:45:55.398Z,166
2016-10-08T06:46:55.884Z,166
2016-10-08T06:47:56.429Z,166
2016-10-08T06:48:56.895Z,166
2016-10-08T06:49:57.418Z,175
2016-10-08T06:50:57.884Z,175
2016-10-08T06:51:58.420Z,175
2016-10-08T06:52:58.895Z,175
2016-10-08T06:53:59.393Z,175
2016-10-08T06:54:59.902Z,175
2016-10-08T06:56:00.398Z,175
2016-10-08T06:57:00.900Z,175
2016-10-08T06:58:01.404Z,175
2016-10-08T06:59:01.911Z,175
2016-10-08T07:00:02.440Z,172
2016-10-08T07:01:03.052Z,172
2016-10-08T07:02:03.422Z,172
2016-10-08T07:03:03.920Z,172
2016-10-08T07:04:04.403Z,172
2016-10-08T07:05:05.066Z,172
2016-10-08T07:06:05.402Z,172
2016-10-08T07:07:06.052Z,172
2016-10-08T07:08:06.551Z,172
2016-10-08T07:09:07.049Z,172
2016-10-08T07:10:07.552Z,128
2016-10-08T07:11:08.066Z,128
2016-10-08T07:12:08.403Z,128
2016-10-08T07:13:08.907Z,128
2016-10-08T07:14:09.409Z,128
2016-10-08T07:15:09.932Z,128
2016-10-08T07:16:10.402Z,128
2016-10-08T07:17:10.910Z,128
2016-10-08T07:18:11.552Z,128
2016-10-08T07:19:12.052Z,164
2016-10-08T07:20:12.403Z,164
2016-10-08T07:21:12.908Z,164
2016-10-08T07:22:13.427Z,164
2016-10-08T07:23:14.059Z,164
2016-10-08T07:24:14.404Z,164
2016-10-08T07:25:14.905Z,164
2016-10-08T07:26:15.420Z,164
2016-10-08T07:27:15.933Z,164
2016-10-08T07:28:16.412Z,164
2016-10-08T07:29:16.912Z,69
2016-10-08T07:30:17.553Z,69
2016-10-08T07:31:18.090Z,69
2016-10-08T07:32:18.418Z,69
2016-10-08T07:33:19.056Z,69
2016-10-08T07:34:19.551Z,69
2016-10-08T07:35:19.916Z,69
2016-10-08T07:36:20.422Z,69
2016-10-08T07:37:21.069Z,69
2016-10-08T07:38:21.440Z,69
2016-10-08T07:39:22.058Z,127
2016-10-08T07:40:22.560Z,127
2016-10-08T07:41:22.914Z,127
2016-10-08T07:42:23.454Z,127
2016-10-08T07:43:24.061Z,127
2016-10-08T07:44:24.558Z,127
2016-10-08T07:45:24.931Z,127
2016-10-08T07:46:25.432Z,127
2016-10-08T07:47:26.056Z,127
2016-10-08T07:48:26.568Z,127
2016-10-08T07:49:27.058Z,204
2016-10-08T07:50:27.405Z,204
2016-10-08T07:51:28.056Z,204
2016-10-08T07:52:28.561Z,204
2016-10-08T07:53:29.075Z,204
2016-10-08T07:54:29.416Z,204
2016-10-08T07:55:29.916Z,204
2016-10-08T07:56:30.574Z,204
2016-10-08T07:57:30.917Z,204
2016-10-08T07:58:31.556Z,204
2016-10-08T07:59:31.917Z,216
2016-10-08T08:00:32.574Z,216
2016-10-08T08:01:32.916Z,216
2016-10-08T08:02:33.436Z,216
2016-10-08T08:03:33.920Z,216
2016-10-08T08:04:34.557Z,216
2016-10-08T08:05:34.906Z,216
2016-10-08T08:06:35.415Z,216
2016-10-08T08:07:36.071Z,216
2016-10-08T08:08:36.575Z,216
2016-10-08T08:09:36.902Z,210
2016-10-08T08:10:37.563Z,210
2016-10-08T08:11:37.909Z,210
2016-10-08T08:12:38.588Z,210
2016-10-08T08:13:39.055Z,210
2016-10-08T08:14:39.560Z,210
2016-10-08T08:15:39.932Z,210
2016-10-08T08:16:40.454Z,210
2016-10-08T08:17:41.074Z,210
2016-10-08T08:18:41.447Z,210
2016-10-08T08:19:41.933Z,239
2016-10-08T08:20:42.477Z,239
2016-10-08T08:21:42.932Z,239
2016-10-08T08:22:43.592Z,239
2016-10-08T08:23:43.928Z,239
2016-10-08T08:24:44.442Z,239
2016-10-08T08:25:44.937Z,239
2016-10-08T08:26:45.427Z,239
2016-10-08T08:27:45.943Z,239
2016-10-08T08:28:46.434Z,239
2016-10-08T08:29:46.932Z,254
2016-10-08T08:30:47.586Z,254
2016-10-08T08:31:47.920Z,254
2016-10-08T08:32:48.442Z,254
2016-10-08T08:33:49.072Z,254
2016-10-08T08:34:49.428Z,254
2016-10-08T08:35:50.072Z,254
2016-10-08T08:36:50.458Z,254
2016-10-08T08:37:51.083Z,254
2016-10-08T08:38:51.437Z,254
2016-10-08T08:39:51.949Z,256
2016-10-08T08:40:52.453Z,256
2016-10-08T08:41:52.924Z,256
2016-10-08T08:42:53.597Z,256
2016-10-08T08:43:53.936Z,256
2016-10-08T08:44:54.446Z,256
2016-10-08T08:45:54.958Z,256
2016-10-08T08:46:55.513Z,256
2016-10-08T08:47:55.998Z,256
2016-10-08T08:48:56.507Z,256
2016-10-08T08:49:57.017Z,259
2016-10-08T08:50:57.531Z,259
2016-10-08T08:51:58.076Z,259
2016-10-08T08:52:58.562Z,259
2016-10-08T08:53:59.079Z,259
2016-10-08T08:54:59.749Z,259
2016-10-08T08:56:00.117Z,259
2016-10-08T08:57:00.636Z,259
2016-10-08T08:58:01.141Z,259
2016-10-08T08:59:01.685Z,259
2016-10-08T09:00:02.170Z,211
2016-10-08T09:01:02.682Z,211
2016-10-08T09:02:03.205Z,211
2016-10-08T09:03:03.854Z,211
2016-10-08T09:04:04.352Z,211
2016-10-08T09:05:04.738Z,211
2016-10-08T09:06:05.212Z,211
2016-10-08T09:07:05.866Z,211
2016-10-08T09:08:06.236Z,211
2016-10-08T09:09:06.739Z,211
2016-10-08T09:10:07.244Z,203
2016-10-08T09:11:07.745Z,203
2016-10-08T09:12:08.393Z,203
2016-10-08T09:13:08.758Z,203
2016-10-08T09:14:09.400Z,203
2016-10-08T09:15:09.909Z,203
2016-10-08T09:16:10.276Z,203
2016-10-08T09:17:10.774Z,203
2016-10-08T09:18:11.423Z,203
2016-10-08T09:19:11.781Z,228
2016-10-08T09:20:12.424Z,228
2016-10-08T09:21:12.937Z,228
2016-10-08T09:22:13.305Z,228
2016-10-08T09:23:13.794Z,228
2016-10-08T09:24:14.445Z,228
2016-10-08T09:25:14.820Z,228
2016-10-08T09:26:15.325Z,228
2016-10-08T09:27:15.963Z,228
2016-10-08T09:28:16.325Z,228
2016-10-08T09:29:16.823Z,247
2016-10-08T09:30:17.331Z,247
2016-10-08T09:31:17.829Z,247
2016-10-08T09:32:18.337Z,247
2016-10-08T09:33:18.992Z,247
2016-10-08T09:34:19.352Z,247
2016-10-08T09:35:19.862Z,247
2016-10-08T09:36:20.372Z,247
2016-10-08T09:37:21.022Z,247
2016-10-08T09:38:21.395Z,247
2016-10-08T09:39:21.895Z,222
2016-10-08T09:40:22.538Z,222
2016-10-08T09:41:22.900Z,222
2016-10-08T09:42:23.541Z,222
2016-10-08T09:43:23.934Z,222
2016-10-08T09:44:24.422Z,222
2016-10-08T09:45:24.917Z,222
2016-10-08T09:46:25.440Z,222
2016-10-08T09:47:26.064Z,222
2016-10-08T09:48:26.447Z,222
2016-10-08T09:49:26.922Z,211
2016-10-08T09:50:27.573Z,211
2016-10-08T09:51:27.937Z,211
2016-10-08T09:52:28.450Z,211
2016-10-08T09:53:28.953Z,211
2016-10-08T09:54:29.592Z,211
2016-10-08T09:55:29.964Z,211
2016-10-08T09:56:30.599Z,211
2016-10-08T09:57:30.955Z,211
2016-10-08T09:58:31.460Z,211
2016-10-08T09:59:32.115Z,169
2016-10-08T10:00:32.617Z,169
2016-10-08T10:01:33.014Z,169
2016-10-08T10:02:33.481Z,169
2016-10-08T10:03:34.140Z,169
2016-10-08T10:04:34.642Z,169
2016-10-08T10:05:35.007Z,169
2016-10-08T10:06:35.502Z,169
2016-10-08T10:07:36.153Z,169
2016-10-08T10:08:36.513Z,169
2016-10-08T10:09:37.023Z,176
2016-10-08T10:10:37.528Z,176
2016-10-08T10:11:38.184Z,176
2016-10-08T10:12:38.540Z,176
2016-10-08T10:13:39.073Z,176
2016-10-08T10:14:39.557Z,176
2016-10-08T10:15:40.079Z,176
2016-10-08T10:16:40.707Z,176
2016-10-08T10:17:41.074Z,176
2016-10-08T10:18:41.571Z,176
2016-10-08T10:19:42.222Z,178
2016-10-08T10:20:42.722Z,178
2016-10-08T10:21:43.113Z,178
2016-10-08T10:22:43.588Z,178
2016-10-08T10:23:44.240Z,178
2016-10-08T10:24:44.606Z,178
2016-10-08T10:25:45.249Z,178
2016-10-08T10:26:45.617Z,178
2016-10-08T10:27:46.114Z,178
2016-10-08T10:28:46.767Z,178
2016-10-08T10:29:47.126Z,253
2016-10-08T10:30:47.637Z,253
2016-10-08T10:31:48.150Z,253
2016-10-08T10:32:48.637Z,253
2016-10-08T10:33:49.148Z,253
2016-10-08T10:34:49.650Z,253
2016-10-08T10:35:50.174Z,253
2016-10-08T10:36:50.786Z,253
2016-10-08T10:37:51.151Z,253
2016-10-08T10:38:51.660Z,253
2016-10-08T10:39:52.159Z,174
2016-10-08T10:40:52.684Z,174
2016-10-08T10:41:53.163Z,174
2016-10-08T10:42:53.689Z,174
2016-10-08T10:43:54.324Z,174
2016-10-08T10:44:54.693Z,174
2016-10-08T10:45:55.212Z,174
2016-10-08T10:46:55.689Z,174
2016-10-08T10:47:56.211Z,174
2016-10-08T10:48:56.713Z,174
2016-10-08T10:49:57.238Z,146
2016-10-08T10:50:57.867Z,146
2016-10-08T10:51:58.234Z,146
2016-10-08T10:52:58.881Z,146
2016-10-08T10:53:59.383Z,146
2016-10-08T10:54:59.765Z,146
2016-10-08T10:56:00.396Z,146
2016-10-08T10:57:00.752Z,146
2016-10-08T10:58:01.296Z,146
2016-10-08T10:59:01.904Z,146
2016-10-08T11:00:02.271Z,235
2016-10-08T11:01:02.924Z,235
2016-10-08T11:02:03.420Z,235
2016-10-08T11:03:03.921Z,235
2016-10-08T11:04:04.281Z,235
2016-10-08T11:05:04.933Z,235
2016-10-08T11:06:05.437Z,235
2016-10-08T11:07:05.799Z,235
2016-10-08T11:08:06.301Z,235
2016-10-08T11:09:06.805Z,235
2016-10-08T11:10:07.305Z,169
2016-10-08T11:11:07.821Z,169
2016-10-08T11:12:08.340Z,169
2016-10-08T11:13:08.820Z,169
2016-10-08T11:14:09.474Z,169
2016-10-08T11:15:09.861Z,169
2016-10-08T11:16:10.330Z,169
2016-10-08T11:17:10.865Z,169
2016-10-08T11:18:11.374Z,169
2016-10-08T11:19:11.844Z,151
2016-10-08T11:20:12.350Z,151
2016-10-08T11:21:12.844Z,151
2016-10-08T11:22:13.498Z,151
2016-10-08T11:23:13.879Z,151
2016-10-08T11:24:14.364Z,151
2016-10-08T11:25:14.876Z,151
2016-10-08T11:26:15.526Z,151
2016-10-08T11:27:15.885Z,151
2016-10-08T11:28:16.539Z,151
2016-10-08T11:29:17.043Z,175
2016-10-08T11:30:17.548Z,175
2016-10-08T11:31:17.904Z,175
2016-10-08T11:32:18.413Z,175
2016-10-08T11:33:19.057Z,175
2016-10-08T11:34:19.564Z,175
2016-10-08T11:35:19.919Z,175
2016-10-08T11:36:20.427Z,175
2016-10-08T11:37:20.926Z,175
2016-10-08T11:38:21.442Z,175
2016-10-08T11:39:22.080Z,250
2016-10-08T11:40:22.584Z,250
2016-10-08T11:41:23.085Z,250
2016-10-08T11:42:23.464Z,250
2016-10-08T11:43:24.090Z,250
2016-10-08T11:44:24.446Z,250
2016-10-08T11:45:24.988Z,250
2016-10-08T11:46:25.482Z,250
2016-10-08T11:47:25.962Z,250
2016-10-08T11:48:26.483Z,250
2016-10-08T11:49:27.114Z,227
2016-10-08T11:50:27.510Z,227
2016-10-08T11:51:28.124Z,227
2016-10-08T11:52:28.476Z,227
2016-10-08T11:53:28.996Z,227
2016-10-08T11:54:29.500Z,227
2016-10-08T11:55:30.134Z,227
2016-10-08T11:56:30.519Z,227
2016-10-08T11:57:31.008Z,227
2016-10-08T11:58:31.534Z,227
2016-10-08T11:59:32.014Z,146
2016-10-08T12:00:32.663Z,146
2016-10-08T12:01:33.164Z,146
2016-10-08T12:02:33.560Z,146
2016-10-08T12:03:34.045Z,146
2016-10-08T12:04:34.547Z,146
2016-10-08T12:05:35.053Z,146
2016-10-08T12:06:35.565Z,146
2016-10-08T12:07:36.076Z,146
2016-10-08T12:08:36.574Z,146
2016-10-08T12:09:37.110Z,139
2016-10-08T12:10:37.579Z,139
2016-10-08T12:11:38.100Z,139
2016-10-08T12:12:38.600Z,139
2016-10-08T12:13:39.104Z,139
2016-10-08T12:14:39.743Z,139
2016-10-08T12:15:40.108Z,139
2016-10-08T12:16:40.599Z,139
2016-10-08T12:17:41.119Z,139
2016-10-08T12:18:41.637Z,139
2016-10-08T12:19:42.129Z,176
2016-10-08T12:20:42.766Z,176
2016-10-08T12:21:43.266Z,176
2016-10-08T12:22:43.773Z,176
2016-10-08T12:23:44.151Z,176
2016-10-08T12:24:44.638Z,176
2016-10-08T12:25:45.282Z,176
2016-10-08T12:26:45.666Z,176
2016-10-08T12:27:46.161Z,176
2016-10-08T12:28:46.673Z,176
2016-10-08T12:29:47.302Z,226
2016-10-08T12:30:47.657Z,226
2016-10-08T12:31:48.160Z,226
2016-10-08T12:32:48.695Z,226
2016-10-08T12:33:49.168Z,226
2016-10-08T12:34:49.822Z,226
2016-10-08T12:35:50.191Z,226
2016-10-08T12:36:50.695Z,226
2016-10-08T12:37:51.192Z,226
2016-10-08T12:38:51.837Z,226
2016-10-08T12:39:52.194Z,237
2016-10-08T12:40:52.699Z,237
2016-10-08T12:41:53.211Z,237
2016-10-08T12:42:53.754Z,237
2016-10-08T12:43:54.264Z,237
2016-10-08T12:44:54.732Z,237
2016-10-08T12:45:55.264Z,237
2016-10-08T12:46:55.728Z,237
2016-10-08T12:47:56.244Z,237
2016-10-08T12:48:56.749Z,237
2016-10-08T12:49:57.252Z,224
2016-10-08T12:50:57.783Z,224
2016-10-08T12:51:58.267Z,224
2016-10-08T12:52:58.903Z,224
2016-10-08T12:53:59.259Z,224
2016-10-08T12:54:59.771Z,224
2016-10-08T12:56:00.411Z,224
2016-10-08T12:57:00.807Z,224
2016-10-08T12:58:01.303Z,224
2016-10-08T12:59:01.925Z,224
2016-10-08T13:00:02.425Z,218
2016-10-08T13:01:02.930Z,218
2016-10-08T13:02:03.297Z,218
2016-10-08T13:03:03.935Z,218
2016-10-08T13:04:04.438Z,218
2016-10-08T13:05:04.798Z,218
2016-10-08T13:06:05.301Z,218
2016-10-08T13:07:06.097Z,218
2016-10-08T13:08:06.329Z,218
2016-10-08T13:09:06.960Z,218
2016-10-08T13:10:07.341Z,151
2016-10-08T13:11:07.824Z,151
2016-10-08T13:12:08.325Z,151
2016-10-08T13:13:08.832Z,151
2016-10-08T13:14:09.352Z,151
2016-10-08T13:15:09.886Z,151
2016-10-08T13:16:10.491Z,151
2016-10-08T13:17:10.885Z,151
2016-10-08T13:18:11.367Z,151
2016-10-08T13:19:12.013Z,194
2016-10-08T13:20:12.520Z,194
2016-10-08T13:21:12.904Z,194
2016-10-08T13:22:13.394Z,194
2016-10-08T13:23:13.900Z,194
2016-10-08T13:24:14.413Z,194
2016-10-08T13:25:14.925Z,194
2016-10-08T13:26:15.549Z,194
2016-10-08T13:27:15.912Z,194
2016-10-08T13:28:16.416Z,194
2016-10-08T13:29:17.067Z,264
2016-10-08T13:30:17.566Z,264
2016-10-08T13:31:17.945Z,264
2016-10-08T13:32:18.577Z,264
2016-10-08T13:33:19.080Z,264
2016-10-08T13:34:19.577Z,264
2016-10-08T13:35:19.956Z,264
2016-10-08T13:36:20.439Z,264
2016-10-08T13:37:20.974Z,264
2016-10-08T13:38:21.451Z,264
2016-10-08T13:39:21.974Z,272
2016-10-08T13:40:22.602Z,272
2016-10-08T13:41:23.108Z,272
2016-10-08T13:42:23.467Z,272
2016-10-08T13:43:24.117Z,272
2016-10-08T13:44:24.619Z,272
2016-10-08T13:45:25.125Z,272
2016-10-08T13:46:25.502Z,272
2016-10-08T13:47:26.133Z,272
2016-10-08T13:48:26.636Z,272
2016-10-08T13:49:26.994Z,129
2016-10-08T13:50:27.509Z,129
2016-10-08T13:51:28.144Z,129
2016-10-08T13:52:28.514Z,129
2016-10-08T13:53:29.024Z,129
2016-10-08T13:54:29.515Z,129
2016-10-08T13:55:30.043Z,129
2016-10-08T13:56:30.539Z,129
2016-10-08T13:57:31.168Z,129